Time;durP1;ratioP1;P1;durP2;ratioP2;P2;SDS_P1;SDS_P2;PMS_P1;PMS_P2;Temp;Humidity;BMP_temperature;BMP_pressure;BME280_temperature;BME280_humidity;BME280_pressure;Samples;Min_cycle;Max_cycle;Signal;HPM_P1;HPM_P2
2021/06/12 00:01:05;;;;;;;;;;;22.00;52.90;;;;;;489798;243;1117;-75
2021/06/12 00:03:06;;;;;;;;;;;21.90;52.80;;;;;;488852;244;1060;-75
2021/06/12 00:05:08;;;;;;;;;;;21.80;53.00;;;;;;486412;243;1191;-76
2021/06/12 00:07:09;;;;;;;;;;;21.90;53.00;;;;;;487832;243;1113;-76
2021/06/12 00:09:10;;;;;;;;;;;21.90;53.00;;;;;;489922;243;1048;-75
2021/06/12 00:11:12;;;;;;;;;;;21.90;52.90;;;;;;488908;244;1228;-75
2021/06/12 00:13:13;;;;;;;;;;;22.10;52.50;;;;;;488916;242;2189;-75
2021/06/12 00:15:14;;;;;;;;;;;22.20;52.10;;;;;;486716;243;1070;-75
2021/06/12 00:17:15;;;;;;;;;;;22.20;52.00;;;;;;487860;243;1029;-75
2021/06/12 00:19:17;;;;;;;;;;;22.30;51.80;;;;;;489857;243;1227;-75
2021/06/12 00:21:18;;;;;;;;;;;22.30;51.80;;;;;;488787;244;1109;-76
2021/06/12 00:23:19;;;;;;;;;;;22.40;51.70;;;;;;486461;243;1046;-76
2021/06/12 00:25:21;;;;;;;;;;;22.40;51.60;;;;;;487903;243;1063;-76
2021/06/12 00:27:22;;;;;;;;;;;22.50;51.50;;;;;;489765;243;1037;-76
2021/06/12 00:29:23;;;;;;;;;;;22.40;51.50;;;;;;488902;244;1128;-76
2021/06/12 00:31:24;;;;;;;;;;;22.40;51.50;;;;;;486395;243;1043;-76
2021/06/12 00:33:26;;;;;;;;;;;22.50;51.40;;;;;;487861;243;2139;-76
2021/06/12 00:35:27;;;;;;;;;;;22.50;51.40;;;;;;489785;243;1192;-76
2021/06/12 00:37:28;;;;;;;;;;;22.50;51.30;;;;;;488792;244;1166;-76
2021/06/12 00:39:30;;;;;;;;;;;22.50;51.20;;;;;;488860;243;1126;-76
2021/06/12 00:41:31;;;;;;;;;;;22.40;51.50;;;;;;486498;243;1215;-76
2021/06/12 00:43:32;;;;;;;;;;;22.20;51.80;;;;;;488013;243;1008;-76
2021/06/12 00:45:33;;;;;;;;;;;22.20;52.20;;;;;;489750;243;1049;-76
2021/06/12 00:47:35;;;;;;;;;;;22.10;52.40;;;;;;488786;244;1191;-76
2021/06/12 00:49:36;;;;;;;;;;;22.00;52.50;;;;;;486416;243;963;-76
2021/06/12 00:51:38;;;;;;;;;;;22.10;52.60;;;;;;487891;243;1170;-76
2021/06/12 00:53:40;;;;;;;;;;;22.10;52.40;;;;;;489882;243;2130;-76
2021/06/12 00:55:41;;;;;;;;;;;22.00;52.60;;;;;;488847;244;1074;-76
2021/06/12 00:57:43;;;;;;;;;;;22.00;52.60;;;;;;486554;243;1099;-76
2021/06/12 00:59:44;;;;;;;;;;;21.90;52.70;;;;;;487878;243;1043;-76
2021/06/12 01:01:45;;;;;;;;;;;22.00;52.90;;;;;;489914;243;1064;-76
2021/06/12 01:03:46;;;;;;;;;;;21.90;52.80;;;;;;488846;244;967;-75
2021/06/12 01:05:48;;;;;;;;;;;21.90;52.90;;;;;;486433;243;1170;-76
2021/06/12 01:07:49;;;;;;;;;;;21.80;52.80;;;;;;488022;243;1062;-76
2021/06/12 01:09:50;;;;;;;;;;;22.00;52.60;;;;;;489935;243;1067;-76
2021/06/12 01:11:52;;;;;;;;;;;21.90;52.80;;;;;;488916;244;1058;-76
2021/06/12 01:13:53;;;;;;;;;;;21.80;52.90;;;;;;486385;243;2159;-76
2021/06/12 01:15:54;;;;;;;;;;;21.80;53.00;;;;;;487775;243;1054;-76
2021/06/12 01:17:55;;;;;;;;;;;22.00;52.60;;;;;;489732;243;1020;-76
2021/06/12 01:19:57;;;;;;;;;;;22.10;52.20;;;;;;488841;244;1013;-76
2021/06/12 01:21:58;;;;;;;;;;;22.30;52.00;;;;;;486333;243;1214;-76
2021/06/12 01:23:59;;;;;;;;;;;22.30;51.80;;;;;;487884;243;1155;-75
2021/06/12 01:26:01;;;;;;;;;;;22.40;51.70;;;;;;489767;243;1035;-75
2021/06/12 01:28:02;;;;;;;;;;;22.40;51.50;;;;;;488819;244;1085;-75
2021/06/12 01:30:03;;;;;;;;;;;22.40;51.60;;;;;;488809;243;1053;-76
2021/06/12 01:32:04;;;;;;;;;;;22.40;51.50;;;;;;486366;243;1216;-76
2021/06/12 01:34:06;;;;;;;;;;;22.40;51.40;;;;;;487895;243;2142;-76
2021/06/12 01:36:07;;;;;;;;;;;22.40;51.40;;;;;;489907;239;1201;-76
2021/06/12 01:38:08;;;;;;;;;;;22.40;51.40;;;;;;489026;244;1053;-75
2021/06/12 01:40:10;;;;;;;;;;;22.40;51.40;;;;;;486397;243;1056;-75
2021/06/12 01:42:11;;;;;;;;;;;22.50;51.30;;;;;;487890;243;1149;-75
2021/06/12 01:44:12;;;;;;;;;;;22.50;51.30;;;;;;489825;243;1092;-75
2021/06/12 01:46:13;;;;;;;;;;;22.30;51.50;;;;;;488736;244;1234;-76
2021/06/12 01:48:15;;;;;;;;;;;22.20;51.90;;;;;;486450;243;1165;-76
2021/06/12 01:50:16;;;;;;;;;;;22.10;52.10;;;;;;487882;243;1058;-76
2021/06/12 01:52:17;;;;;;;;;;;22.00;52.30;;;;;;489744;243;1392;-76
2021/06/12 01:54:19;;;;;;;;;;;22.00;52.60;;;;;;488900;244;2189;-76
2021/06/12 01:56:20;;;;;;;;;;;21.90;52.60;;;;;;488765;242;1154;-76
2021/06/12 01:58:21;;;;;;;;;;;21.90;52.70;;;;;;486395;243;1322;-76
2021/06/12 02:00:23;;;;;;;;;;;21.90;52.70;;;;;;487942;243;1122;-76
2021/06/12 02:02:24;;;;;;;;;;;21.90;52.70;;;;;;489697;243;1103;-76
2021/06/12 02:04:26;;;;;;;;;;;21.80;52.80;;;;;;488876;244;1047;-76
2021/06/12 02:06:27;;;;;;;;;;;21.90;52.90;;;;;;488725;242;1576;-76
2021/06/12 02:08:28;;;;;;;;;;;21.90;52.80;;;;;;495490;239;958;-76
2021/06/12 02:10:29;;;;;;;;;;;21.90;52.70;;;;;;495483;240;1053;-76
2021/06/12 02:12:31;;;;;;;;;;;21.90;52.80;;;;;;495548;240;1115;-76
2021/06/12 02:14:32;;;;;;;;;;;21.90;52.90;;;;;;495534;240;2120;-76
2021/06/12 02:16:33;;;;;;;;;;;21.80;52.80;;;;;;495463;236;1274;-75
2021/06/12 02:18:35;;;;;;;;;;;21.80;52.80;;;;;;495539;240;1113;-75
2021/06/12 02:20:36;;;;;;;;;;;22.00;52.50;;;;;;495604;240;1064;-75
2021/06/12 02:22:37;;;;;;;;;;;22.20;52.30;;;;;;495392;240;1159;-76
2021/06/12 02:24:40;;;;;;;;;;;22.20;52.00;;;;;;495590;240;1035;-76
2021/06/12 02:26:40;;;;;;;;;;;22.20;51.80;;;;;;495479;240;1475;-76
2021/06/12 02:28:41;;;;;;;;;;;22.30;51.70;;;;;;495496;240;1023;-76
2021/06/12 02:30:42;;;;;;;;;;;22.40;51.50;;;;;;495464;240;1035;-76
2021/06/12 02:32:44;;;;;;;;;;;22.40;51.50;;;;;;495388;240;2163;-76
2021/06/12 02:34:45;;;;;;;;;;;22.50;51.40;;;;;;495552;240;1065;-76
2021/06/12 02:36:46;;;;;;;;;;;22.50;51.10;;;;;;495386;240;1326;-76
2021/06/12 02:38:47;;;;;;;;;;;22.50;51.30;;;;;;495513;240;1022;-76
2021/06/12 02:40:49;;;;;;;;;;;22.40;51.30;;;;;;495486;240;1067;-76
2021/06/12 02:42:50;;;;;;;;;;;22.40;51.40;;;;;;495399;240;1309;-75
2021/06/12 02:44:51;;;;;;;;;;;22.50;51.30;;;;;;495508;240;1060;-75
2021/06/12 02:46:52;;;;;;;;;;;22.50;51.30;;;;;;495569;240;1268;-76
2021/06/12 02:48:54;;;;;;;;;;;22.40;51.40;;;;;;495573;240;1079;-76
2021/06/12 02:50:55;;;;;;;;;;;22.20;51.80;;;;;;495621;240;1077;-76
2021/06/12 02:52:56;;;;;;;;;;;22.10;52.20;;;;;;495467;240;2181;-76
2021/06/12 02:54:58;;;;;;;;;;;21.90;52.50;;;;;;495928;240;1102;-75
2021/06/12 02:56:59;;;;;;;;;;;21.90;52.70;;;;;;495477;240;1255;-75
2021/06/12 02:59:00;;;;;;;;;;;21.90;52.80;;;;;;495539;240;1096;-76
2021/06/12 03:01:01;;;;;;;;;;;21.90;52.90;;;;;;495547;240;1261;-76
2021/06/12 03:03:03;;;;;;;;;;;21.80;53.00;;;;;;495497;240;1047;-76
2021/06/12 03:05:04;;;;;;;;;;;21.80;53.10;;;;;;495506;240;1036;-76
2021/06/12 03:07:06;;;;;;;;;;;21.70;53.00;;;;;;495486;240;1345;-76
2021/06/12 03:09:07;;;;;;;;;;;21.80;53.10;;;;;;495518;240;1033;-76
2021/06/12 03:11:08;;;;;;;;;;;21.70;53.10;;;;;;495525;240;1170;-76
2021/06/12 03:13:10;;;;;;;;;;;21.70;53.10;;;;;;495498;240;2174;-76
2021/06/12 03:15:11;;;;;;;;;;;21.70;53.20;;;;;;495569;240;1048;-76
2021/06/12 03:17:12;;;;;;;;;;;21.60;53.30;;;;;;495567;240;1210;-76
2021/06/12 03:19:14;;;;;;;;;;;21.60;53.40;;;;;;495585;240;1026;-76
2021/06/12 03:21:15;;;;;;;;;;;21.60;53.40;;;;;;495568;240;1206;-75
2021/06/12 03:23:17;;;;;;;;;;;21.80;53.20;;;;;;495566;240;1072;-75
2021/06/12 03:25:18;;;;;;;;;;;21.90;52.80;;;;;;495523;240;1253;-75
2021/06/12 03:27:19;;;;;;;;;;;22.00;52.40;;;;;;495427;240;1118;-75
2021/06/12 03:29:20;;;;;;;;;;;22.10;52.20;;;;;;495497;240;1104;-76
2021/06/12 03:31:22;;;;;;;;;;;22.20;52.00;;;;;;495500;240;1238;-76
2021/06/12 03:33:24;;;;;;;;;;;22.20;52.00;;;;;;495470;240;2147;-75
2021/06/12 03:35:25;;;;;;;;;;;22.30;51.80;;;;;;495737;240;1226;-75
2021/06/12 03:37:26;;;;;;;;;;;22.30;51.80;;;;;;495586;240;1149;-76
2021/06/12 03:39:27;;;;;;;;;;;22.30;51.60;;;;;;495539;240;1101;-76
2021/06/12 03:41:29;;;;;;;;;;;22.30;51.50;;;;;;495474;240;1123;-76
2021/06/12 03:43:30;;;;;;;;;;;22.40;51.50;;;;;;495517;240;1027;-76
2021/06/12 03:45:31;;;;;;;;;;;22.30;51.40;;;;;;495559;240;1091;-76
2021/06/12 03:47:33;;;;;;;;;;;22.20;51.80;;;;;;495577;240;1405;-76
2021/06/12 03:49:34;;;;;;;;;;;22.10;52.20;;;;;;495545;240;1189;-76
2021/06/12 03:51:35;;;;;;;;;;;22.00;52.40;;;;;;495539;240;1608;-76
2021/06/12 03:53:44;;;;;;;;;;;21.80;52.70;;;;;;495490;240;2178;-76
2021/06/12 03:55:45;;;;;;;;;;;21.90;52.80;;;;;;495775;240;1109;-76
2021/06/12 03:57:46;;;;;;;;;;;21.90;52.90;;;;;;495546;240;1148;-76
2021/06/12 03:59:47;;;;;;;;;;;21.80;53.00;;;;;;495464;240;1098;-76
2021/06/12 04:01:49;;;;;;;;;;;21.70;53.00;;;;;;495410;237;1271;-76
2021/06/12 04:03:50;;;;;;;;;;;21.70;53.10;;;;;;495505;240;982;-76
2021/06/12 04:05:51;;;;;;;;;;;21.70;53.10;;;;;;495557;240;1204;-76
2021/06/12 04:07:53;;;;;;;;;;;21.70;53.10;;;;;;495538;240;1129;-76
2021/06/12 04:09:54;;;;;;;;;;;21.80;52.90;;;;;;495645;240;1167;-76
2021/06/12 04:11:55;;;;;;;;;;;21.80;53.00;;;;;;495432;240;1274;-76
2021/06/12 04:13:59;;;;;;;;;;;21.60;53.30;;;;;;495467;240;2146;-76
2021/06/12 04:15:58;;;;;;;;;;;21.70;53.20;;;;;;495471;240;1400;-75
2021/06/12 04:18:07;;;;;;;;;;;21.70;53.30;;;;;;495450;240;1061;-75
2021/06/12 04:20:01;;;;;;;;;;;21.70;53.30;;;;;;495562;240;1393;-75
2021/06/12 04:22:02;;;;;;;;;;;21.80;53.20;;;;;;495583;240;1216;-76
2021/06/12 04:24:03;;;;;;;;;;;21.90;52.70;;;;;;495518;240;1346;-76
2021/06/12 04:26:04;;;;;;;;;;;22.00;52.40;;;;;;495499;240;1187;-76
2021/06/12 04:28:06;;;;;;;;;;;22.10;52.20;;;;;;495475;240;1020;-76
2021/06/12 04:30:07;;;;;;;;;;;22.20;52.00;;;;;;495517;240;1007;-76
2021/06/12 04:32:09;;;;;;;;;;;22.30;51.80;;;;;;495515;240;1194;-76
2021/06/12 04:34:10;;;;;;;;;;;22.30;51.80;;;;;;495564;240;2135;-76
2021/06/12 04:36:11;;;;;;;;;;;22.30;51.70;;;;;;495449;240;1178;-76
2021/06/12 04:38:13;;;;;;;;;;;22.30;51.60;;;;;;495553;240;1153;-76
2021/06/12 04:40:14;;;;;;;;;;;22.30;51.60;;;;;;495496;240;1049;-75
2021/06/12 04:42:15;;;;;;;;;;;22.30;51.60;;;;;;495426;240;1094;-75
2021/06/12 04:44:16;;;;;;;;;;;22.40;51.50;;;;;;495483;240;1134;-76
2021/06/12 04:46:18;;;;;;;;;;;22.40;51.30;;;;;;495522;240;1339;-76
2021/06/12 04:48:19;;;;;;;;;;;22.50;51.40;;;;;;495525;240;1067;-76
2021/06/12 04:50:20;;;;;;;;;;;22.40;51.30;;;;;;495499;240;1105;-76
2021/06/12 04:52:22;;;;;;;;;;;22.40;51.40;;;;;;495504;240;1219;-76
2021/06/12 04:54:23;;;;;;;;;;;22.40;51.40;;;;;;495496;240;2170;-76
2021/06/12 04:56:24;;;;;;;;;;;22.30;51.70;;;;;;495434;240;1204;-76
2021/06/12 04:58:25;;;;;;;;;;;22.20;52.00;;;;;;495455;240;1035;-76
2021/06/12 05:00:27;;;;;;;;;;;22.00;52.30;;;;;;495459;240;1135;-76
2021/06/12 05:02:28;;;;;;;;;;;22.00;52.50;;;;;;495483;240;1293;-76
2021/06/12 05:04:29;;;;;;;;;;;22.00;52.70;;;;;;495482;240;1198;-76
2021/06/12 05:06:30;;;;;;;;;;;21.90;52.80;;;;;;495416;240;1121;-76
2021/06/12 05:08:32;;;;;;;;;;;21.90;52.80;;;;;;495607;240;1200;-76
2021/06/12 05:10:33;;;;;;;;;;;21.90;52.90;;;;;;495519;240;1148;-75
2021/06/12 05:12:34;;;;;;;;;;;21.80;53.10;;;;;;495553;240;983;-75
2021/06/12 05:14:36;;;;;;;;;;;21.70;53.20;;;;;;495461;240;2185;-75
2021/06/12 05:16:39;;;;;;;;;;;21.80;53.20;;;;;;495431;240;1129;-76
2021/06/12 05:18:41;;;;;;;;;;;21.70;53.20;;;;;;495521;240;1985;-75
2021/06/12 05:20:41;;;;;;;;;;;21.70;53.30;;;;;;495553;240;1522;-75
2021/06/12 05:22:42;;;;;;;;;;;21.70;53.40;;;;;;495603;240;1145;-75
2021/06/12 05:24:43;;;;;;;;;;;21.70;53.30;;;;;;495702;240;1128;-75
2021/06/12 05:26:45;;;;;;;;;;;21.70;53.40;;;;;;495705;240;1140;-75
2021/06/12 05:28:46;;;;;;;;;;;21.90;52.90;;;;;;495483;240;1200;-75
2021/06/12 05:30:48;;;;;;;;;;;22.10;52.60;;;;;;495534;240;1223;-75
2021/06/12 05:32:49;;;;;;;;;;;22.20;52.30;;;;;;495440;240;1012;-75
2021/06/12 05:34:50;;;;;;;;;;;22.20;52.10;;;;;;495426;240;2123;-76
2021/06/12 05:36:52;;;;;;;;;;;22.30;51.80;;;;;;495476;240;1241;-76
2021/06/12 05:38:53;;;;;;;;;;;22.40;51.70;;;;;;495580;240;1140;-76
2021/06/12 05:40:54;;;;;;;;;;;22.40;51.60;;;;;;495453;238;1146;-76
2021/06/12 05:42:56;;;;;;;;;;;22.40;51.70;;;;;;495534;240;1052;-76
2021/06/12 05:44:57;;;;;;;;;;;22.40;51.50;;;;;;495441;240;1068;-76
2021/06/12 05:46:58;;;;;;;;;;;22.40;51.50;;;;;;495484;240;1215;-76
2021/06/12 05:49:00;;;;;;;;;;;22.40;51.60;;;;;;495460;240;1623;-76
2021/06/12 05:51:01;;;;;;;;;;;22.20;52.00;;;;;;495469;240;1238;-76
2021/06/12 05:53:02;;;;;;;;;;;22.00;52.40;;;;;;495622;240;1125;-75
2021/06/12 05:55:04;;;;;;;;;;;22.00;52.70;;;;;;495431;240;2189;-76
2021/06/12 05:57:05;;;;;;;;;;;22.00;52.80;;;;;;495465;240;1463;-76
2021/06/12 05:59:07;;;;;;;;;;;21.90;52.90;;;;;;495468;240;999;-75
2021/06/12 06:01:09;;;;;;;;;;;21.80;53.00;;;;;;495447;240;1067;-75
2021/06/12 06:03:09;;;;;;;;;;;21.80;53.10;;;;;;495582;240;1264;-75
2021/06/12 06:05:10;;;;;;;;;;;21.80;53.20;;;;;;495373;240;1157;-76
2021/06/12 06:07:12;;;;;;;;;;;21.80;53.20;;;;;;495382;240;1144;-76
2021/06/12 06:09:14;;;;;;;;;;;21.70;53.30;;;;;;495397;240;1176;-76
2021/06/12 06:11:15;;;;;;;;;;;21.70;53.10;;;;;;495293;240;1146;-76
2021/06/12 06:13:17;;;;;;;;;;;21.80;53.20;;;;;;495456;240;1142;-76
2021/06/12 06:15:18;;;;;;;;;;;21.70;53.30;;;;;;495310;240;2178;-76
2021/06/12 06:17:19;;;;;;;;;;;21.70;53.50;;;;;;495405;240;1152;-76
2021/06/12 06:19:20;;;;;;;;;;;21.70;53.60;;;;;;495407;240;1038;-76
2021/06/12 06:21:22;;;;;;;;;;;21.70;53.60;;;;;;495399;240;1107;-76
2021/06/12 06:23:23;;;;;;;;;;;21.80;53.30;;;;;;495627;240;1202;-76
2021/06/12 06:25:24;;;;;;;;;;;21.80;53.20;;;;;;495392;240;1074;-76
2021/06/12 06:27:25;;;;;;;;;;;21.90;53.10;;;;;;495490;240;1058;-76
2021/06/12 06:29:27;;;;;;;;;;;22.00;52.70;;;;;;495564;240;1120;-76
2021/06/12 06:31:28;;;;;;;;;;;22.10;52.60;;;;;;495320;240;1070;-76
2021/06/12 06:33:29;;;;;;;;;;;22.10;52.30;;;;;;495438;240;1231;-76
2021/06/12 06:35:31;;;;;;;;;;;22.20;52.30;;;;;;495393;240;2147;-76
2021/06/12 06:37:32;;;;;;;;;;;22.20;52.20;;;;;;495500;240;1202;-76
2021/06/12 06:39:33;;;;;;;;;;;22.20;52.10;;;;;;495572;240;1192;-76
2021/06/12 06:41:35;;;;;;;;;;;22.30;51.90;;;;;;495377;240;1061;-76
2021/06/12 06:43:36;;;;;;;;;;;22.40;51.80;;;;;;495771;240;1175;-76
2021/06/12 06:45:37;;;;;;;;;;;22.50;51.50;;;;;;495303;240;1054;-76
2021/06/12 06:47:38;;;;;;;;;;;22.50;51.50;;;;;;495367;240;1075;-76
2021/06/12 06:49:40;;;;;;;;;;;22.50;51.50;;;;;;495526;240;1095;-76
2021/06/12 06:51:41;;;;;;;;;;;22.40;51.70;;;;;;495291;240;1139;-76
2021/06/12 06:53:42;;;;;;;;;;;22.30;51.90;;;;;;495517;240;1172;-76
2021/06/12 06:55:43;;;;;;;;;;;22.10;52.40;;;;;;495386;238;2206;-76
2021/06/12 06:57:45;;;;;;;;;;;22.00;52.80;;;;;;495537;240;1053;-76
2021/06/12 06:59:46;;;;;;;;;;;21.90;53.10;;;;;;495379;240;1146;-76
2021/06/12 07:01:47;;;;;;;;;;;21.90;53.20;;;;;;495533;240;1267;-76
2021/06/12 07:03:49;;;;;;;;;;;21.80;53.40;;;;;;495871;240;1051;-76
2021/06/12 07:05:50;;;;;;;;;;;21.80;53.40;;;;;;495478;240;1329;-76
2021/06/12 07:07:51;;;;;;;;;;;21.80;53.40;;;;;;495520;240;1116;-76
2021/06/12 07:09:53;;;;;;;;;;;21.90;53.40;;;;;;495570;240;1160;-76
2021/06/12 07:11:54;;;;;;;;;;;21.70;53.50;;;;;;495447;240;1199;-76
2021/06/12 07:13:55;;;;;;;;;;;21.70;53.50;;;;;;495548;240;1382;-76
2021/06/12 07:15:56;;;;;;;;;;;21.70;53.60;;;;;;495435;240;2182;-76
2021/06/12 07:17:58;;;;;;;;;;;21.70;53.70;;;;;;495474;240;1215;-76
2021/06/12 07:20:00;;;;;;;;;;;21.70;53.70;;;;;;495503;240;1141;-76
2021/06/12 07:22:00;;;;;;;;;;;21.70;53.80;;;;;;495411;240;1406;-76
2021/06/12 07:24:01;;;;;;;;;;;21.70;53.80;;;;;;495420;240;1151;-76
2021/06/12 07:26:03;;;;;;;;;;;21.60;53.90;;;;;;495457;240;1176;-76
2021/06/12 07:28:04;;;;;;;;;;;21.60;53.90;;;;;;495570;240;1151;-76
2021/06/12 07:30:06;;;;;;;;;;;21.70;53.70;;;;;;495446;240;1034;-76
2021/06/12 07:32:07;;;;;;;;;;;22.00;53.30;;;;;;495475;240;1186;-76
2021/06/12 07:34:08;;;;;;;;;;;22.10;52.90;;;;;;495545;240;1035;-76
2021/06/12 07:36:09;;;;;;;;;;;22.10;52.70;;;;;;495486;240;2134;-76
2021/06/12 07:38:11;;;;;;;;;;;22.20;52.70;;;;;;495520;240;1040;-75
2021/06/12 07:40:12;;;;;;;;;;;22.20;52.50;;;;;;495565;240;1145;-76
2021/06/12 07:42:13;;;;;;;;;;;22.30;52.30;;;;;;495310;240;1124;-76
2021/06/12 07:44:15;;;;;;;;;;;22.30;52.30;;;;;;495415;240;1057;-76
2021/06/12 07:46:16;;;;;;;;;;;22.30;52.30;;;;;;495341;240;1155;-75
2021/06/12 07:48:17;;;;;;;;;;;22.40;52.20;;;;;;495476;240;961;-76
2021/06/12 07:50:19;;;;;;;;;;;22.30;52.20;;;;;;495360;240;1139;-76
2021/06/12 07:52:20;;;;;;;;;;;22.40;52.20;;;;;;495405;240;1053;-76
2021/06/12 07:54:21;;;;;;;;;;;22.40;52.10;;;;;;495570;240;1272;-76
2021/06/12 07:56:22;;;;;;;;;;;22.20;52.60;;;;;;495408;240;2190;-75
2021/06/12 07:58:24;;;;;;;;;;;22.10;53.00;;;;;;495595;240;1015;-76
2021/06/12 08:00:25;;;;;;;;;;;22.00;53.30;;;;;;495419;240;1083;-76
2021/06/12 08:02:26;;;;;;;;;;;21.90;53.30;;;;;;495438;240;1152;-76
2021/06/12 08:04:28;;;;;;;;;;;21.90;53.50;;;;;;495372;240;1163;-75
2021/06/12 08:06:29;;;;;;;;;;;21.80;53.60;;;;;;495648;240;1400;-75
2021/06/12 08:08:30;;;;;;;;;;;21.80;53.70;;;;;;495528;240;1041;-75
2021/06/12 08:10:31;;;;;;;;;;;21.90;53.70;;;;;;495517;240;1178;-76
2021/06/12 08:12:33;;;;;;;;;;;21.80;54.00;;;;;;495338;240;1202;-75
2021/06/12 08:14:34;;;;;;;;;;;21.70;54.10;;;;;;495459;240;1081;-75
2021/06/12 08:16:35;;;;;;;;;;;21.70;54.00;;;;;;495326;240;2182;-75
2021/06/12 08:18:37;;;;;;;;;;;21.70;54.10;;;;;;495387;240;1169;-76
2021/06/12 08:20:38;;;;;;;;;;;21.70;54.10;;;;;;495384;240;1000;-76
2021/06/12 08:22:41;;;;;;;;;;;21.70;54.00;;;;;;495275;240;1218;-75
2021/06/12 08:24:41;;;;;;;;;;;21.70;53.90;;;;;;495466;240;1428;-75
2021/06/12 08:26:42;;;;;;;;;;;21.70;54.00;;;;;;495367;240;1233;-76
2021/06/12 08:28:43;;;;;;;;;;;21.70;54.10;;;;;;495431;240;1077;-75
2021/06/12 08:30:44;;;;;;;;;;;21.80;54.00;;;;;;495400;240;1093;-76
2021/06/12 08:32:46;;;;;;;;;;;21.90;53.70;;;;;;495541;240;1058;-76
2021/06/12 08:34:47;;;;;;;;;;;22.10;53.20;;;;;;495512;240;2193;-76
2021/06/12 08:36:48;;;;;;;;;;;22.20;53.00;;;;;;495385;240;1168;-76
2021/06/12 08:38:50;;;;;;;;;;;22.20;52.90;;;;;;495415;240;967;-75
2021/06/12 08:40:51;;;;;;;;;;;22.20;52.70;;;;;;495465;240;1203;-75
2021/06/12 08:42:52;;;;;;;;;;;22.30;52.60;;;;;;495354;240;1079;-75
2021/06/12 08:44:53;;;;;;;;;;;22.30;52.50;;;;;;495480;240;1161;-76
2021/06/12 08:46:55;;;;;;;;;;;22.30;52.40;;;;;;495420;240;1312;-76
2021/06/12 08:48:56;;;;;;;;;;;22.40;52.30;;;;;;495439;240;989;-75
2021/06/12 08:50:58;;;;;;;;;;;22.40;52.20;;;;;;495370;240;1349;-75
2021/06/12 08:52:59;;;;;;;;;;;22.40;52.20;;;;;;495299;240;1126;-76
2021/06/12 08:55:00;;;;;;;;;;;22.30;52.40;;;;;;495407;240;2189;-76
2021/06/12 08:57:01;;;;;;;;;;;22.10;52.90;;;;;;495277;240;1334;-76
2021/06/12 08:59:03;;;;;;;;;;;22.00;53.40;;;;;;495438;240;1033;-76
2021/06/12 09:01:04;;;;;;;;;;;22.00;53.60;;;;;;495377;240;1389;-76
2021/06/12 09:03:06;;;;;;;;;;;21.90;53.70;;;;;;495467;240;1066;-76
2021/06/12 09:05:07;;;;;;;;;;;21.90;53.80;;;;;;495467;240;1117;-75
2021/06/12 09:07:08;;;;;;;;;;;21.90;53.80;;;;;;495414;240;1117;-76
2021/06/12 09:09:09;;;;;;;;;;;21.80;53.90;;;;;;495383;240;994;-76
2021/06/12 09:11:11;;;;;;;;;;;21.90;53.60;;;;;;495442;240;1181;-75
2021/06/12 09:13:12;;;;;;;;;;;21.90;54.00;;;;;;495473;240;1072;-76
2021/06/12 09:15:13;;;;;;;;;;;21.70;54.20;;;;;;495449;240;2210;-75
2021/06/12 09:17:14;;;;;;;;;;;21.70;54.30;;;;;;495310;240;1298;-75
2021/06/12 09:19:16;;;;;;;;;;;21.70;54.20;;;;;;495504;240;1101;-76
2021/06/12 09:21:17;;;;;;;;;;;21.70;54.20;;;;;;495456;240;1056;-76
2021/06/12 09:23:18;;;;;;;;;;;21.70;54.20;;;;;;495441;240;1095;-76
2021/06/12 09:25:20;;;;;;;;;;;21.70;54.30;;;;;;495467;240;1144;-76
2021/06/12 09:27:21;;;;;;;;;;;21.70;54.30;;;;;;495383;240;1017;-76
2021/06/12 09:29:22;;;;;;;;;;;21.70;54.40;;;;;;495560;240;1025;-76
2021/06/12 09:31:23;;;;;;;;;;;21.70;54.40;;;;;;495390;240;1279;-76
2021/06/12 09:33:25;;;;;;;;;;;21.70;54.50;;;;;;495440;240;1260;-76
2021/06/12 09:35:26;;;;;;;;;;;21.90;54.00;;;;;;495404;240;2204;-76
2021/06/12 09:37:28;;;;;;;;;;;22.10;53.50;;;;;;495477;240;1081;-76
2021/06/12 09:39:29;;;;;;;;;;;22.20;53.20;;;;;;495398;240;1400;-76
2021/06/12 09:41:30;;;;;;;;;;;22.30;53.20;;;;;;495402;240;1157;-76
2021/06/12 09:43:31;;;;;;;;;;;22.30;52.80;;;;;;495476;240;1088;-75
2021/06/12 09:45:32;;;;;;;;;;;22.30;52.70;;;;;;495442;240;1093;-76
2021/06/12 09:47:34;;;;;;;;;;;22.30;52.70;;;;;;495350;240;1111;-75
2021/06/12 09:49:35;;;;;;;;;;;22.40;52.50;;;;;;495350;240;1139;-75
2021/06/12 09:51:37;;;;;;;;;;;22.50;52.50;;;;;;495330;240;1034;-75
2021/06/12 09:53:38;;;;;;;;;;;22.40;52.50;;;;;;495347;240;1052;-75
2021/06/12 09:55:39;;;;;;;;;;;22.50;52.30;;;;;;495480;240;2185;-75
2021/06/12 09:57:41;;;;;;;;;;;22.20;52.80;;;;;;495490;240;1054;-75
2021/06/12 09:59:42;;;;;;;;;;;22.10;53.20;;;;;;495528;240;1041;-75
2021/06/12 10:01:43;;;;;;;;;;;21.90;53.60;;;;;;495337;240;1128;-75
2021/06/12 10:03:44;;;;;;;;;;;21.90;53.80;;;;;;495340;240;1025;-76
2021/06/12 10:05:46;;;;;;;;;;;21.90;54.00;;;;;;495451;240;1073;-76
2021/06/12 10:07:47;;;;;;;;;;;21.80;54.00;;;;;;495319;240;1049;-76
2021/06/12 10:09:48;;;;;;;;;;;21.80;54.10;;;;;;495412;240;1105;-75
2021/06/12 10:11:50;;;;;;;;;;;21.70;54.20;;;;;;495414;240;1214;-75
2021/06/12 10:13:51;;;;;;;;;;;21.70;54.30;;;;;;495454;240;1098;-75
2021/06/12 10:15:52;;;;;;;;;;;21.70;54.20;;;;;;495438;240;2201;-75
2021/06/12 10:17:53;;;;;;;;;;;21.70;54.40;;;;;;495348;240;1085;-75
2021/06/12 10:19:55;;;;;;;;;;;21.70;54.40;;;;;;495392;240;1135;-75
2021/06/12 10:21:56;;;;;;;;;;;21.60;54.50;;;;;;495420;240;1145;-76
2021/06/12 10:23:57;;;;;;;;;;;21.60;54.50;;;;;;495426;240;1164;-76
2021/06/12 10:25:59;;;;;;;;;;;21.60;54.40;;;;;;495407;236;1303;-76
2021/06/12 10:28:00;;;;;;;;;;;21.60;54.40;;;;;;495413;240;1063;-76
2021/06/12 10:30:01;;;;;;;;;;;21.70;54.40;;;;;;495327;240;1097;-75
2021/06/12 10:32:02;;;;;;;;;;;21.60;54.40;;;;;;495420;240;1096;-75
2021/06/12 10:34:04;;;;;;;;;;;21.70;54.20;;;;;;495470;240;1071;-76
2021/06/12 10:36:05;;;;;;;;;;;21.90;53.70;;;;;;495477;240;2135;-76
2021/06/12 10:38:13;;;;;;;;;;;22.00;53.30;;;;;;495408;240;1325;-76
2021/06/12 10:40:07;;;;;;;;;;;22.10;53.10;;;;;;495577;240;1358;-76
2021/06/12 10:42:09;;;;;;;;;;;22.20;53.00;;;;;;495373;237;1181;-76
2021/06/12 10:44:10;;;;;;;;;;;22.30;52.80;;;;;;495368;240;1040;-76
2021/06/12 10:46:11;;;;;;;;;;;22.20;52.60;;;;;;495434;240;1157;-76
2021/06/12 10:48:13;;;;;;;;;;;22.30;52.50;;;;;;495326;240;1036;-76
2021/06/12 10:50:14;;;;;;;;;;;22.40;52.40;;;;;;495462;240;1034;-76
2021/06/12 10:52:15;;;;;;;;;;;22.40;52.40;;;;;;495510;240;1183;-76
2021/06/12 10:54:19;;;;;;;;;;;22.40;52.40;;;;;;495419;240;1107;-76
2021/06/12 10:56:20;;;;;;;;;;;22.40;52.40;;;;;;495391;240;2182;-76
2021/06/12 10:58:21;;;;;;;;;;;22.40;52.30;;;;;;495376;240;1048;-76
2021/06/12 11:00:24;;;;;;;;;;;22.30;52.40;;;;;;495416;240;1050;-76
2021/06/12 11:02:28;;;;;;;;;;;22.10;52.90;;;;;;495446;240;1418;-76
2021/06/12 11:04:27;;;;;;;;;;;22.00;53.30;;;;;;495409;240;1404;-76
2021/06/12 11:06:48;;;;;;;;;;;21.80;53.70;;;;;;495309;240;1548;-75
2021/06/12 11:08:47;;;;;;;;;;;21.70;54.10;;;;;;495308;240;1314;-76
2021/06/12 11:10:49;;;;;;;;;;;21.80;54.10;;;;;;495401;240;1245;-76
2021/06/12 11:12:50;;;;;;;;;;;21.70;54.30;;;;;;495378;240;1440;-76
2021/06/12 11:14:51;;;;;;;;;;;21.70;54.40;;;;;;495341;240;1050;-76
2021/06/12 11:16:52;;;;;;;;;;;21.60;54.40;;;;;;495301;236;2185;-76
2021/06/12 11:18:54;;;;;;;;;;;21.70;54.40;;;;;;495466;240;1083;-76
2021/06/12 11:20:55;;;;;;;;;;;21.60;54.40;;;;;;495509;240;1040;-76
2021/06/12 11:22:56;;;;;;;;;;;21.60;54.40;;;;;;495475;240;1102;-76
2021/06/12 11:24:58;;;;;;;;;;;21.60;54.50;;;;;;495498;240;1037;-76
2021/06/12 11:26:59;;;;;;;;;;;21.60;54.50;;;;;;495373;240;1213;-75
2021/06/12 11:29:00;;;;;;;;;;;21.50;54.60;;;;;;495447;240;1085;-75
2021/06/12 11:31:01;;;;;;;;;;;21.50;54.60;;;;;;495463;240;1173;-75
2021/06/12 11:33:04;;;;;;;;;;;21.50;54.70;;;;;;495428;240;1077;-75
2021/06/12 11:35:04;;;;;;;;;;;21.40;54.70;;;;;;495651;240;1492;-76
2021/06/12 11:37:05;;;;;;;;;;;21.50;54.90;;;;;;495400;240;2127;-76
2021/06/12 11:39:07;;;;;;;;;;;21.70;54.40;;;;;;495535;240;1050;-75
2021/06/12 11:41:08;;;;;;;;;;;21.90;53.90;;;;;;495481;240;1144;-76
2021/06/12 11:43:09;;;;;;;;;;;22.00;53.50;;;;;;495568;240;1028;-76
2021/06/12 11:45:10;;;;;;;;;;;22.20;53.30;;;;;;495466;240;1054;-75
2021/06/12 11:47:13;;;;;;;;;;;22.20;53.00;;;;;;495647;240;1109;-75
2021/06/12 11:49:13;;;;;;;;;;;22.20;52.90;;;;;;495386;240;1400;-75
2021/06/12 11:51:14;;;;;;;;;;;22.20;52.90;;;;;;495390;240;1021;-76
2021/06/12 11:53:16;;;;;;;;;;;22.20;52.90;;;;;;495390;240;1018;-76
2021/06/12 11:55:17;;;;;;;;;;;22.30;52.80;;;;;;495454;240;1038;-76
2021/06/12 11:57:18;;;;;;;;;;;22.30;52.90;;;;;;495447;240;2142;-76